sensor_id;sensor_type;location;lat;lon;timestamp;temperature;humidity
60039;DHT22;45916;52.734;6.544;2023-04-25T00:00:29;6.70;99.90
60039;DHT22;45916;52.734;6.544;2023-04-25T00:02:54;6.70;99.90
60039;DHT22;45916;52.734;6.544;2023-04-25T00:05:22;6.80;99.90
60039;DHT22;45916;52.734;6.544;2023-04-25T00:07:49;6.70;99.90
60039;DHT22;45916;52.734;6.544;2023-04-25T00:10:15;6.60;99.90
60039;DHT22;45916;52.734;6.544;2023-04-25T00:12:41;6.40;99.90
60039;DHT22;45916;52.734;6.544;2023-04-25T00:15:07;6.30;99.90
60039;DHT22;45916;52.734;6.544;2023-04-25T00:17:33;6.20;99.90
60039;DHT22;45916;52.734;6.544;2023-04-25T00:20:00;6.10;99.90
60039;DHT22;45916;52.734;6.544;2023-04-25T00:22:30;5.90;99.90
60039;DHT22;45916;52.734;6.544;2023-04-25T00:24:55;5.80;99.90
60039;DHT22;45916;52.734;6.544;2023-04-25T00:27:22;5.70;99.90
60039;DHT22;45916;52.734;6.544;2023-04-25T00:29:48;5.60;99.90
60039;DHT22;45916;52.734;6.544;2023-04-25T00:32:13;5.50;99.90
60039;DHT22;45916;52.734;6.544;2023-04-25T00:34:39;5.30;99.90
60039;DHT22;45916;52.734;6.544;2023-04-25T00:37:05;5.30;99.90
60039;DHT22;45916;52.734;6.544;2023-04-25T00:39:31;5.10;99.90
60039;DHT22;45916;52.734;6.544;2023-04-25T00:41:57;5.10;99.90
60039;DHT22;45916;52.734;6.544;2023-04-25T00:44:24;5.00;99.90
60039;DHT22;45916;52.734;6.544;2023-04-25T00:46:50;5.00;99.90
60039;DHT22;45916;52.734;6.544;2023-04-25T00:49:16;5.00;99.90
60039;DHT22;45916;52.734;6.544;2023-04-25T00:51:43;5.00;99.90
60039;DHT22;45916;52.734;6.544;2023-04-25T00:54:11;4.90;99.90
60039;DHT22;45916;52.734;6.544;2023-04-25T00:56:37;4.90;99.90
60039;DHT22;45916;52.734;6.544;2023-04-25T00:59:03;4.80;99.90
60039;DHT22;45916;52.734;6.544;2023-04-25T01:01:30;4.80;99.90
60039;DHT22;45916;52.734;6.544;2023-04-25T01:03:58;4.80;99.90
60039;DHT22;45916;52.734;6.544;2023-04-25T01:06:24;4.70;99.90
60039;DHT22;45916;52.734;6.544;2023-04-25T01:08:51;4.80;99.90
60039;DHT22;45916;52.734;6.544;2023-04-25T01:11:17;4.70;99.90
60039;DHT22;45916;52.734;6.544;2023-04-25T01:13:43;4.70;99.90
60039;DHT22;45916;52.734;6.544;2023-04-25T01:16:09;4.70;99.90
60039;DHT22;45916;52.734;6.544;2023-04-25T01:18:36;4.80;99.90
60039;DHT22;45916;52.734;6.544;2023-04-25T01:21:08;4.80;99.90
60039;DHT22;45916;52.734;6.544;2023-04-25T01:23:37;4.90;99.90
60039;DHT22;45916;52.734;6.544;2023-04-25T01:26:04;4.90;99.90
60039;DHT22;45916;52.734;6.544;2023-04-25T01:28:30;5.00;99.90
60039;DHT22;45916;52.734;6.544;2023-04-25T01:30:58;5.00;99.90
60039;DHT22;45916;52.734;6.544;2023-04-25T01:33:24;4.90;99.90
60039;DHT22;45916;52.734;6.544;2023-04-25T01:35:50;4.90;99.90
60039;DHT22;45916;52.734;6.544;2023-04-25T01:38:16;4.90;99.90
60039;DHT22;45916;52.734;6.544;2023-04-25T01:40:43;4.90;99.90
60039;DHT22;45916;52.734;6.544;2023-04-25T01:43:10;4.80;99.90
60039;DHT22;45916;52.734;6.544;2023-04-25T01:45:38;4.80;99.90
60039;DHT22;45916;52.734;6.544;2023-04-25T01:48:07;4.90;99.90
60039;DHT22;45916;52.734;6.544;2023-04-25T01:50:33;5.10;99.90
60039;DHT22;45916;52.734;6.544;2023-04-25T01:53:06;5.20;99.90
60039;DHT22;45916;52.734;6.544;2023-04-25T01:55:32;5.30;99.90
60039;DHT22;45916;52.734;6.544;2023-04-25T01:57:58;5.40;99.90
60039;DHT22;45916;52.734;6.544;2023-04-25T02:00:25;5.40;99.90
60039;DHT22;45916;52.734;6.544;2023-04-25T02:02:51;5.50;99.90
60039;DHT22;45916;52.734;6.544;2023-04-25T02:05:19;5.60;99.90
60039;DHT22;45916;52.734;6.544;2023-04-25T02:07:44;5.60;99.90
60039;DHT22;45916;52.734;6.544;2023-04-25T02:10:10;5.70;99.90
60039;DHT22;45916;52.734;6.544;2023-04-25T02:12:36;5.70;99.90
60039;DHT22;45916;52.734;6.544;2023-04-25T02:15:02;5.70;99.90
60039;DHT22;45916;52.734;6.544;2023-04-25T02:17:27;5.70;99.90
60039;DHT22;45916;52.734;6.544;2023-04-25T02:19:53;5.70;99.90
60039;DHT22;45916;52.734;6.544;2023-04-25T02:22:19;5.80;99.90
60039;DHT22;45916;52.734;6.544;2023-04-25T02:24:45;5.80;99.90
60039;DHT22;45916;52.734;6.544;2023-04-25T02:27:10;5.80;99.90
60039;DHT22;45916;52.734;6.544;2023-04-25T02:29:36;5.90;99.90
60039;DHT22;45916;52.734;6.544;2023-04-25T02:32:02;5.90;99.90
60039;DHT22;45916;52.734;6.544;2023-04-25T02:34:28;5.90;99.90
60039;DHT22;45916;52.734;6.544;2023-04-25T02:36:53;5.90;99.90
60039;DHT22;45916;52.734;6.544;2023-04-25T02:39:19;5.90;99.90
60039;DHT22;45916;52.734;6.544;2023-04-25T02:41:45;5.90;99.90
60039;DHT22;45916;52.734;6.544;2023-04-25T02:44:10;6.00;99.90
60039;DHT22;45916;52.734;6.544;2023-04-25T02:46:36;6.00;99.90
60039;DHT22;45916;52.734;6.544;2023-04-25T02:49:02;6.00;99.90
60039;DHT22;45916;52.734;6.544;2023-04-25T02:51:27;6.00;99.90
60039;DHT22;45916;52.734;6.544;2023-04-25T02:53:53;6.00;99.90
60039;DHT22;45916;52.734;6.544;2023-04-25T02:56:19;6.10;99.90
60039;DHT22;45916;52.734;6.544;2023-04-25T02:58:45;6.10;99.90
60039;DHT22;45916;52.734;6.544;2023-04-25T03:01:11;6.10;99.90
60039;DHT22;45916;52.734;6.544;2023-04-25T03:03:36;6.10;99.90
60039;DHT22;45916;52.734;6.544;2023-04-25T03:06:02;6.10;99.90
60039;DHT22;45916;52.734;6.544;2023-04-25T03:08:28;6.00;99.90
60039;DHT22;45916;52.734;6.544;2023-04-25T03:10:58;6.00;99.90
60039;DHT22;45916;52.734;6.544;2023-04-25T03:13:24;6.00;99.90
60039;DHT22;45916;52.734;6.544;2023-04-25T03:15:50;5.90;99.90
60039;DHT22;45916;52.734;6.544;2023-04-25T03:18:16;5.90;99.90
60039;DHT22;45916;52.734;6.544;2023-04-25T03:20:41;5.90;99.90
60039;DHT22;45916;52.734;6.544;2023-04-25T03:23:08;5.90;99.90
60039;DHT22;45916;52.734;6.544;2023-04-25T03:25:34;5.90;99.90
60039;DHT22;45916;52.734;6.544;2023-04-25T03:28:00;5.90;99.90
60039;DHT22;45916;52.734;6.544;2023-04-25T03:30:26;5.80;99.90
60039;DHT22;45916;52.734;6.544;2023-04-25T03:32:51;5.80;99.90
60039;DHT22;45916;52.734;6.544;2023-04-25T03:35:17;5.80;99.90
60039;DHT22;45916;52.734;6.544;2023-04-25T03:37:43;5.80;99.90
60039;DHT22;45916;52.734;6.544;2023-04-25T03:40:11;5.70;99.90
60039;DHT22;45916;52.734;6.544;2023-04-25T03:42:37;5.70;99.90
60039;DHT22;45916;52.734;6.544;2023-04-25T03:45:04;5.70;99.90
60039;DHT22;45916;52.734;6.544;2023-04-25T03:47:29;5.70;99.90
60039;DHT22;45916;52.734;6.544;2023-04-25T03:49:55;5.80;99.90
60039;DHT22;45916;52.734;6.544;2023-04-25T03:52:21;5.90;99.90
60039;DHT22;45916;52.734;6.544;2023-04-25T03:54:46;6.00;99.90
60039;DHT22;45916;52.734;6.544;2023-04-25T03:57:12;6.00;99.90
60039;DHT22;45916;52.734;6.544;2023-04-25T03:59:38;5.90;99.90
60039;DHT22;45916;52.734;6.544;2023-04-25T04:02:04;5.90;99.90
60039;DHT22;45916;52.734;6.544;2023-04-25T04:04:29;5.80;99.90
60039;DHT22;45916;52.734;6.544;2023-04-25T04:06:55;5.70;99.90
60039;DHT22;45916;52.734;6.544;2023-04-25T04:09:21;5.70;99.90
60039;DHT22;45916;52.734;6.544;2023-04-25T04:11:47;5.70;99.90
60039;DHT22;45916;52.734;6.544;2023-04-25T04:14:13;5.60;99.90
60039;DHT22;45916;52.734;6.544;2023-04-25T04:16:38;5.60;99.90
60039;DHT22;45916;52.734;6.544;2023-04-25T04:19:04;5.50;99.90
60039;DHT22;45916;52.734;6.544;2023-04-25T04:21:30;5.50;99.90
60039;DHT22;45916;52.734;6.544;2023-04-25T04:23:57;5.50;99.90
60039;DHT22;45916;52.734;6.544;2023-04-25T04:26:25;5.40;99.90
60039;DHT22;45916;52.734;6.544;2023-04-25T04:28:52;5.30;99.90
60039;DHT22;45916;52.734;6.544;2023-04-25T04:31:20;5.30;99.90
60039;DHT22;45916;52.734;6.544;2023-04-25T04:33:47;5.30;99.90
60039;DHT22;45916;52.734;6.544;2023-04-25T04:36:13;5.40;99.90
60039;DHT22;45916;52.734;6.544;2023-04-25T04:38:39;5.40;99.90
60039;DHT22;45916;52.734;6.544;2023-04-25T04:41:05;5.40;99.90
60039;DHT22;45916;52.734;6.544;2023-04-25T04:43:31;5.40;99.90
60039;DHT22;45916;52.734;6.544;2023-04-25T04:46:01;5.40;99.90
60039;DHT22;45916;52.734;6.544;2023-04-25T04:48:29;5.50;99.90
60039;DHT22;45916;52.734;6.544;2023-04-25T04:50:58;5.60;99.90
60039;DHT22;45916;52.734;6.544;2023-04-25T04:53:23;5.60;99.90
60039;DHT22;45916;52.734;6.544;2023-04-25T04:55:49;5.80;99.90
60039;DHT22;45916;52.734;6.544;2023-04-25T04:58:15;5.90;99.90
60039;DHT22;45916;52.734;6.544;2023-04-25T05:00:41;5.90;99.90
60039;DHT22;45916;52.734;6.544;2023-04-25T05:03:07;5.90;99.90
60039;DHT22;45916;52.734;6.544;2023-04-25T05:05:32;5.90;99.90
60039;DHT22;45916;52.734;6.544;2023-04-25T05:07:58;5.90;99.90
60039;DHT22;45916;52.734;6.544;2023-04-25T05:10:24;6.00;99.90
60039;DHT22;45916;52.734;6.544;2023-04-25T05:12:49;6.00;99.90
60039;DHT22;45916;52.734;6.544;2023-04-25T05:15:15;6.10;99.90
60039;DHT22;45916;52.734;6.544;2023-04-25T05:17:41;6.10;99.90
60039;DHT22;45916;52.734;6.544;2023-04-25T05:20:07;6.10;99.90
60039;DHT22;45916;52.734;6.544;2023-04-25T05:22:34;6.20;99.90
60039;DHT22;45916;52.734;6.544;2023-04-25T05:25:01;6.20;99.90
60039;DHT22;45916;52.734;6.544;2023-04-25T05:27:26;6.30;99.90
60039;DHT22;45916;52.734;6.544;2023-04-25T05:29:52;6.30;99.90
60039;DHT22;45916;52.734;6.544;2023-04-25T05:32:18;6.40;99.90
60039;DHT22;45916;52.734;6.544;2023-04-25T05:34:43;6.50;99.90
60039;DHT22;45916;52.734;6.544;2023-04-25T05:37:09;6.60;99.90
60039;DHT22;45916;52.734;6.544;2023-04-25T05:39:35;6.60;99.90
60039;DHT22;45916;52.734;6.544;2023-04-25T05:42:01;6.90;99.90
60039;DHT22;45916;52.734;6.544;2023-04-25T05:44:27;7.70;99.90
60039;DHT22;45916;52.734;6.544;2023-04-25T05:46:53;8.80;99.90
60039;DHT22;45916;52.734;6.544;2023-04-25T05:49:19;10.10;99.90
60039;DHT22;45916;52.734;6.544;2023-04-25T05:51:44;11.30;99.90
60039;DHT22;45916;52.734;6.544;2023-04-25T05:54:10;12.50;99.90
60039;DHT22;45916;52.734;6.544;2023-04-25T05:56:36;13.70;99.90
60039;DHT22;45916;52.734;6.544;2023-04-25T05:59:01;14.70;99.90
60039;DHT22;45916;52.734;6.544;2023-04-25T06:01:27;14.90;97.50
60039;DHT22;45916;52.734;6.544;2023-04-25T06:03:53;14.70;92.00
60039;DHT22;45916;52.734;6.544;2023-04-25T06:06:19;13.90;88.20
60039;DHT22;45916;52.734;6.544;2023-04-25T06:08:44;13.00;90.80
60039;DHT22;45916;52.734;6.544;2023-04-25T06:11:10;12.30;92.20
60039;DHT22;45916;52.734;6.544;2023-04-25T06:13:36;11.60;95.10
60039;DHT22;45916;52.734;6.544;2023-04-25T06:16:02;11.00;95.30
60039;DHT22;45916;52.734;6.544;2023-04-25T06:18:27;10.50;99.90
60039;DHT22;45916;52.734;6.544;2023-04-25T06:20:53;10.10;99.90
60039;DHT22;45916;52.734;6.544;2023-04-25T06:23:19;9.80;99.90
60039;DHT22;45916;52.734;6.544;2023-04-25T06:25:44;9.60;99.90
60039;DHT22;45916;52.734;6.544;2023-04-25T06:28:10;9.50;99.90
60039;DHT22;45916;52.734;6.544;2023-04-25T06:30:36;9.40;99.90
60039;DHT22;45916;52.734;6.544;2023-04-25T06:33:01;9.40;99.90
60039;DHT22;45916;52.734;6.544;2023-04-25T06:35:27;9.50;99.90
60039;DHT22;45916;52.734;6.544;2023-04-25T06:37:53;9.70;99.90
60039;DHT22;45916;52.734;6.544;2023-04-25T06:40:19;9.90;99.90
60039;DHT22;45916;52.734;6.544;2023-04-25T06:42:44;10.10;99.90
60039;DHT22;45916;52.734;6.544;2023-04-25T06:45:10;10.30;99.90
60039;DHT22;45916;52.734;6.544;2023-04-25T06:47:36;10.90;99.90
60039;DHT22;45916;52.734;6.544;2023-04-25T06:50:02;12.40;99.90
60039;DHT22;45916;52.734;6.544;2023-04-25T06:52:27;14.60;99.90
60039;DHT22;45916;52.734;6.544;2023-04-25T06:54:53;16.50;91.80
60039;DHT22;45916;52.734;6.544;2023-04-25T06:57:19;18.20;75.30
60039;DHT22;45916;52.734;6.544;2023-04-25T06:59:44;19.40;67.90
60039;DHT22;45916;52.734;6.544;2023-04-25T07:02:10;20.60;64.40
60039;DHT22;45916;52.734;6.544;2023-04-25T07:04:36;21.40;57.50
60039;DHT22;45916;52.734;6.544;2023-04-25T07:07:02;21.90;54.40
60039;DHT22;45916;52.734;6.544;2023-04-25T07:09:28;22.70;56.90
60039;DHT22;45916;52.734;6.544;2023-04-25T07:11:54;22.90;52.40
60039;DHT22;45916;52.734;6.544;2023-04-25T07:14:20;22.00;51.00
60039;DHT22;45916;52.734;6.544;2023-04-25T07:16:46;21.20;50.50
60039;DHT22;45916;52.734;6.544;2023-04-25T07:19:12;20.20;53.10
60039;DHT22;45916;52.734;6.544;2023-04-25T07:21:37;19.00;54.00
60039;DHT22;45916;52.734;6.544;2023-04-25T07:24:03;17.60;55.30
60039;DHT22;45916;52.734;6.544;2023-04-25T07:26:29;16.40;59.20
60039;DHT22;45916;52.734;6.544;2023-04-25T07:28:55;15.50;60.40
60039;DHT22;45916;52.734;6.544;2023-04-25T07:31:22;14.70;60.20
60039;DHT22;45916;52.734;6.544;2023-04-25T07:33:48;13.90;61.70
60039;DHT22;45916;52.734;6.544;2023-04-25T07:36:13;13.30;63.70
60039;DHT22;45916;52.734;6.544;2023-04-25T07:38:40;13.10;65.60
60039;DHT22;45916;52.734;6.544;2023-04-25T07:41:06;12.80;65.20
60039;DHT22;45916;52.734;6.544;2023-04-25T07:43:32;12.70;67.10
60039;DHT22;45916;52.734;6.544;2023-04-25T07:45:57;13.90;71.50
60039;DHT22;45916;52.734;6.544;2023-04-25T07:48:23;16.30;71.30
60039;DHT22;45916;52.734;6.544;2023-04-25T07:50:49;18.70;60.00
60039;DHT22;45916;52.734;6.544;2023-04-25T07:53:16;20.50;56.40
60039;DHT22;45916;52.734;6.544;2023-04-25T07:55:43;21.70;52.40
60039;DHT22;45916;52.734;6.544;2023-04-25T07:58:09;22.90;51.60
60039;DHT22;45916;52.734;6.544;2023-04-25T08:00:35;23.80;47.40
60039;DHT22;45916;52.734;6.544;2023-04-25T08:03:01;24.10;45.00
60039;DHT22;45916;52.734;6.544;2023-04-25T08:05:28;24.40;43.50
60039;DHT22;45916;52.734;6.544;2023-04-25T08:07:54;24.60;46.00
60039;DHT22;45916;52.734;6.544;2023-04-25T08:10:19;25.00;44.30
60039;DHT22;45916;52.734;6.544;2023-04-25T08:12:46;25.80;43.90
60039;DHT22;45916;52.734;6.544;2023-04-25T08:15:11;25.70;41.70
60039;DHT22;45916;52.734;6.544;2023-04-25T08:17:39;24.80;40.10
60039;DHT22;45916;52.734;6.544;2023-04-25T08:20:05;23.80;43.20
60039;DHT22;45916;52.734;6.544;2023-04-25T08:22:32;22.20;43.40
60039;DHT22;45916;52.734;6.544;2023-04-25T08:24:58;20.40;45.30
60039;DHT22;45916;52.734;6.544;2023-04-25T08:27:23;18.80;47.60
60039;DHT22;45916;52.734;6.544;2023-04-25T08:29:49;17.60;50.00
60039;DHT22;45916;52.734;6.544;2023-04-25T08:32:16;16.60;53.30
60039;DHT22;45916;52.734;6.544;2023-04-25T08:34:42;15.90;56.50
60039;DHT22;45916;52.734;6.544;2023-04-25T08:37:09;15.20;58.20
60039;DHT22;45916;52.734;6.544;2023-04-25T08:39:38;14.60;61.50
60039;DHT22;45916;52.734;6.544;2023-04-25T08:42:06;13.70;62.20
60039;DHT22;45916;52.734;6.544;2023-04-25T08:44:35;13.60;64.90
60039;DHT22;45916;52.734;6.544;2023-04-25T08:47:05;13.40;65.30
60039;DHT22;45916;52.734;6.544;2023-04-25T08:49:34;13.00;67.60
60039;DHT22;45916;52.734;6.544;2023-04-25T08:52:01;12.90;70.60
60039;DHT22;45916;52.734;6.544;2023-04-25T08:54:28;12.80;71.80
60039;DHT22;45916;52.734;6.544;2023-04-25T08:56:57;13.10;73.30
60039;DHT22;45916;52.734;6.544;2023-04-25T08:59:23;13.50;72.80
60039;DHT22;45916;52.734;6.544;2023-04-25T09:01:50;14.30;70.90
60039;DHT22;45916;52.734;6.544;2023-04-25T09:04:17;15.40;66.80
60039;DHT22;45916;52.734;6.544;2023-04-25T09:06:43;16.50;64.80
60039;DHT22;45916;52.734;6.544;2023-04-25T09:09:09;18.60;60.00
60039;DHT22;45916;52.734;6.544;2023-04-25T09:11:37;20.60;57.40
60039;DHT22;45916;52.734;6.544;2023-04-25T09:14:17;22.30;52.00
60039;DHT22;45916;52.734;6.544;2023-04-25T09:17:13;23.80;50.00
60039;DHT22;45916;52.734;6.544;2023-04-25T09:19:39;25.00;45.40
60039;DHT22;45916;52.734;6.544;2023-04-25T09:22:06;25.40;44.00
60039;DHT22;45916;52.734;6.544;2023-04-25T09:24:38;25.50;43.20
60039;DHT22;45916;52.734;6.544;2023-04-25T09:27:19;25.80;43.50
60039;DHT22;45916;52.734;6.544;2023-04-25T09:29:45;26.70;41.60
60039;DHT22;45916;52.734;6.544;2023-04-25T09:32:21;26.90;41.60
60039;DHT22;45916;52.734;6.544;2023-04-25T09:34:52;26.70;40.60
60039;DHT22;45916;52.734;6.544;2023-04-25T09:37:29;26.10;41.90
60039;DHT22;45916;52.734;6.544;2023-04-25T09:39:59;25.30;43.10
60039;DHT22;45916;52.734;6.544;2023-04-25T09:42:28;24.70;42.20
60039;DHT22;45916;52.734;6.544;2023-04-25T09:44:57;23.90;42.50
60039;DHT22;45916;52.734;6.544;2023-04-25T09:47:25;22.50;44.90
60039;DHT22;45916;52.734;6.544;2023-04-25T09:49:53;21.40;46.90
60039;DHT22;45916;52.734;6.544;2023-04-25T09:52:21;20.10;48.10
60039;DHT22;45916;52.734;6.544;2023-04-25T09:54:47;18.80;50.00
60039;DHT22;45916;52.734;6.544;2023-04-25T09:57:21;17.40;52.70
60039;DHT22;45916;52.734;6.544;2023-04-25T09:59:49;17.00;55.80
60039;DHT22;45916;52.734;6.544;2023-04-25T10:02:21;18.70;57.30
60039;DHT22;45916;52.734;6.544;2023-04-25T10:04:52;20.40;54.40
60039;DHT22;45916;52.734;6.544;2023-04-25T10:07:22;21.90;52.70
60039;DHT22;45916;52.734;6.544;2023-04-25T10:09:55;22.00;49.10
60039;DHT22;45916;52.734;6.544;2023-04-25T10:12:24;21.80;49.10
60039;DHT22;45916;52.734;6.544;2023-04-25T10:14:52;21.30;48.60
60039;DHT22;45916;52.734;6.544;2023-04-25T10:17:20;20.70;48.50
60039;DHT22;45916;52.734;6.544;2023-04-25T10:19:47;20.10;48.70
60039;DHT22;45916;52.734;6.544;2023-04-25T10:22:32;19.40;50.80
60039;DHT22;45916;52.734;6.544;2023-04-25T10:25:00;18.00;53.70
60039;DHT22;45916;52.734;6.544;2023-04-25T10:27:29;16.10;55.80
60039;DHT22;45916;52.734;6.544;2023-04-25T10:30:13;14.70;59.30
60039;DHT22;45916;52.734;6.544;2023-04-25T10:32:42;13.30;64.10
60039;DHT22;45916;52.734;6.544;2023-04-25T10:35:18;12.40;68.00
60039;DHT22;45916;52.734;6.544;2023-04-25T10:38:04;12.00;71.20
60039;DHT22;45916;52.734;6.544;2023-04-25T10:40:31;12.40;74.80
60039;DHT22;45916;52.734;6.544;2023-04-25T10:46:18;16.40;69.40
60039;DHT22;45916;52.734;6.544;2023-04-25T10:48:46;19.60;59.50
60039;DHT22;45916;52.734;6.544;2023-04-25T10:53:56;20.20;53.50
60039;DHT22;45916;52.734;6.544;2023-04-25T10:56:33;18.70;54.20
60039;DHT22;45916;52.734;6.544;2023-04-25T10:59:18;17.30;55.50
60039;DHT22;45916;52.734;6.544;2023-04-25T11:01:52;16.00;59.20
60039;DHT22;45916;52.734;6.544;2023-04-25T11:04:31;15.40;61.60
60039;DHT22;45916;52.734;6.544;2023-04-25T11:09:39;16.10;62.90
60039;DHT22;45916;52.734;6.544;2023-04-25T11:12:08;16.20;61.30
60039;DHT22;45916;52.734;6.544;2023-04-25T11:14:34;16.50;60.50
60039;DHT22;45916;52.734;6.544;2023-04-25T11:17:00;16.80;59.40
60039;DHT22;45916;52.734;6.544;2023-04-25T11:19:28;16.40;56.20
60039;DHT22;45916;52.734;6.544;2023-04-25T11:22:01;16.00;58.10
60039;DHT22;45916;52.734;6.544;2023-04-25T11:24:31;15.60;59.10
60039;DHT22;45916;52.734;6.544;2023-04-25T11:27:01;15.40;61.30
60039;DHT22;45916;52.734;6.544;2023-04-25T11:29:31;15.30;62.40
60039;DHT22;45916;52.734;6.544;2023-04-25T11:31:57;15.10;62.70
60039;DHT22;45916;52.734;6.544;2023-04-25T11:34:24;15.00;62.10
60039;DHT22;45916;52.734;6.544;2023-04-25T11:36:53;14.60;62.30
60039;DHT22;45916;52.734;6.544;2023-04-25T11:39:19;14.30;64.00
60039;DHT22;45916;52.734;6.544;2023-04-25T11:41:46;14.20;67.10
60039;DHT22;45916;52.734;6.544;2023-04-25T11:44:12;14.30;68.90
60039;DHT22;45916;52.734;6.544;2023-04-25T11:46:40;14.40;70.10
60039;DHT22;45916;52.734;6.544;2023-04-25T11:49:06;14.40;64.60
60039;DHT22;45916;52.734;6.544;2023-04-25T11:51:39;14.40;67.80
60039;DHT22;45916;52.734;6.544;2023-04-25T11:54:05;14.50;66.30
60039;DHT22;45916;52.734;6.544;2023-04-25T11:56:31;14.30;65.90
60039;DHT22;45916;52.734;6.544;2023-04-25T11:59:02;14.30;65.30
60039;DHT22;45916;52.734;6.544;2023-04-25T12:01:33;14.50;64.20
60039;DHT22;45916;52.734;6.544;2023-04-25T12:04:13;14.60;64.00
60039;DHT22;45916;52.734;6.544;2023-04-25T12:06:40;14.90;63.80
60039;DHT22;45916;52.734;6.544;2023-04-25T12:09:09;15.00;58.70
60039;DHT22;45916;52.734;6.544;2023-04-25T12:11:43;14.90;61.30
60039;DHT22;45916;52.734;6.544;2023-04-25T12:14:10;15.00;63.80
60039;DHT22;45916;52.734;6.544;2023-04-25T12:16:44;14.80;64.80
60039;DHT22;45916;52.734;6.544;2023-04-25T12:19:13;14.60;65.10
60039;DHT22;45916;52.734;6.544;2023-04-25T12:21:39;14.20;65.30
60039;DHT22;45916;52.734;6.544;2023-04-25T12:24:21;13.80;66.50
60039;DHT22;45916;52.734;6.544;2023-04-25T12:29:22;13.00;66.10
60039;DHT22;45916;52.734;6.544;2023-04-25T12:31:49;12.70;67.90
60039;DHT22;45916;52.734;6.544;2023-04-25T12:34:15;12.70;70.40
60039;DHT22;45916;52.734;6.544;2023-04-25T12:36:41;12.70;68.70
60039;DHT22;45916;52.734;6.544;2023-04-25T12:39:07;12.80;68.90
60039;DHT22;45916;52.734;6.544;2023-04-25T12:41:34;12.90;68.00
60039;DHT22;45916;52.734;6.544;2023-04-25T12:43:59;12.80;65.90
60039;DHT22;45916;52.734;6.544;2023-04-25T12:46:25;12.80;64.10
60039;DHT22;45916;52.734;6.544;2023-04-25T12:48:51;12.80;67.10
60039;DHT22;45916;52.734;6.544;2023-04-25T12:51:17;12.70;67.60
60039;DHT22;45916;52.734;6.544;2023-04-25T12:53:42;12.60;66.20
60039;DHT22;45916;52.734;6.544;2023-04-25T12:56:08;12.50;67.90
60039;DHT22;45916;52.734;6.544;2023-04-25T12:58:34;12.40;68.30
60039;DHT22;45916;52.734;6.544;2023-04-25T13:01:00;12.50;67.20
60039;DHT22;45916;52.734;6.544;2023-04-25T13:03:28;12.50;69.70
60039;DHT22;45916;52.734;6.544;2023-04-25T13:05:54;12.70;72.20
60039;DHT22;45916;52.734;6.544;2023-04-25T13:08:20;12.80;70.90
60039;DHT22;45916;52.734;6.544;2023-04-25T13:10:47;12.70;69.40
60039;DHT22;45916;52.734;6.544;2023-04-25T13:13:12;12.40;70.00
60039;DHT22;45916;52.734;6.544;2023-04-25T13:15:38;12.10;69.00
60039;DHT22;45916;52.734;6.544;2023-04-25T13:18:04;11.60;71.10
60039;DHT22;45916;52.734;6.544;2023-04-25T13:20:33;11.20;71.70
60039;DHT22;45916;52.734;6.544;2023-04-25T13:22:58;11.10;75.40
60039;DHT22;45916;52.734;6.544;2023-04-25T13:25:25;10.90;78.90
60039;DHT22;45916;52.734;6.544;2023-04-25T13:27:51;10.90;79.10
60039;DHT22;45916;52.734;6.544;2023-04-25T13:30:17;10.70;80.80
60039;DHT22;45916;52.734;6.544;2023-04-25T13:32:43;10.40;87.20
60039;DHT22;45916;52.734;6.544;2023-04-25T13:35:11;10.20;92.20
60039;DHT22;45916;52.734;6.544;2023-04-25T13:37:38;10.20;96.40
60039;DHT22;45916;52.734;6.544;2023-04-25T13:40:06;10.50;99.90
60039;DHT22;45916;52.734;6.544;2023-04-25T13:42:34;11.00;99.90
60039;DHT22;45916;52.734;6.544;2023-04-25T13:45:01;11.50;98.30
60039;DHT22;45916;52.734;6.544;2023-04-25T13:47:27;11.90;97.80
60039;DHT22;45916;52.734;6.544;2023-04-25T13:49:53;12.30;95.00
60039;DHT22;45916;52.734;6.544;2023-04-25T13:52:18;12.40;93.20
60039;DHT22;45916;52.734;6.544;2023-04-25T13:54:44;12.40;91.80
60039;DHT22;45916;52.734;6.544;2023-04-25T13:57:10;12.50;85.80
60039;DHT22;45916;52.734;6.544;2023-04-25T13:59:37;12.30;75.90
60039;DHT22;45916;52.734;6.544;2023-04-25T14:02:03;12.30;81.50
60039;DHT22;45916;52.734;6.544;2023-04-25T14:04:28;12.20;81.60
60039;DHT22;45916;52.734;6.544;2023-04-25T14:06:55;12.10;80.90
60039;DHT22;45916;52.734;6.544;2023-04-25T14:09:21;12.10;76.70
60039;DHT22;45916;52.734;6.544;2023-04-25T14:11:51;11.80;75.90
60039;DHT22;45916;52.734;6.544;2023-04-25T14:14:18;11.60;78.60
60039;DHT22;45916;52.734;6.544;2023-04-25T14:16:44;11.40;77.50
60039;DHT22;45916;52.734;6.544;2023-04-25T14:19:10;11.20;78.70
60039;DHT22;45916;52.734;6.544;2023-04-25T14:21:35;11.30;82.90
60039;DHT22;45916;52.734;6.544;2023-04-25T14:24:01;11.50;85.20
60039;DHT22;45916;52.734;6.544;2023-04-25T14:26:27;11.70;84.10
60039;DHT22;45916;52.734;6.544;2023-04-25T14:28:52;11.60;78.80
60039;DHT22;45916;52.734;6.544;2023-04-25T14:31:18;11.40;77.10
60039;DHT22;45916;52.734;6.544;2023-04-25T14:33:44;11.10;78.20
60039;DHT22;45916;52.734;6.544;2023-04-25T14:36:11;10.70;81.80
60039;DHT22;45916;52.734;6.544;2023-04-25T14:38:36;10.40;86.50
60039;DHT22;45916;52.734;6.544;2023-04-25T14:41:03;10.10;87.90
60039;DHT22;45916;52.734;6.544;2023-04-25T14:43:29;10.10;90.50
60039;DHT22;45916;52.734;6.544;2023-04-25T14:45:55;10.20;90.30
60039;DHT22;45916;52.734;6.544;2023-04-25T14:48:20;10.20;90.80
60039;DHT22;45916;52.734;6.544;2023-04-25T14:50:46;10.20;89.60
60039;DHT22;45916;52.734;6.544;2023-04-25T14:53:12;10.20;88.80
60039;DHT22;45916;52.734;6.544;2023-04-25T14:55:38;10.20;90.00
60039;DHT22;45916;52.734;6.544;2023-04-25T14:58:03;10.30;89.00
60039;DHT22;45916;52.734;6.544;2023-04-25T15:00:30;10.50;87.50
60039;DHT22;45916;52.734;6.544;2023-04-25T15:02:57;10.60;86.70
60039;DHT22;45916;52.734;6.544;2023-04-25T15:05:23;10.70;87.20
60039;DHT22;45916;52.734;6.544;2023-04-25T15:07:49;10.80;86.30
60039;DHT22;45916;52.734;6.544;2023-04-25T15:10:17;10.90;84.20
60039;DHT22;45916;52.734;6.544;2023-04-25T15:12:43;11.10;85.70
60039;DHT22;45916;52.734;6.544;2023-04-25T15:15:10;11.20;85.60
60039;DHT22;45916;52.734;6.544;2023-04-25T15:17:41;11.40;84.20
60039;DHT22;45916;52.734;6.544;2023-04-25T15:20:09;11.40;82.10
60039;DHT22;45916;52.734;6.544;2023-04-25T15:22:36;11.20;80.20
60039;DHT22;45916;52.734;6.544;2023-04-25T15:25:02;10.90;82.10
60039;DHT22;45916;52.734;6.544;2023-04-25T15:27:28;10.70;84.50
60039;DHT22;45916;52.734;6.544;2023-04-25T15:29:54;10.60;87.20
60039;DHT22;45916;52.734;6.544;2023-04-25T15:32:20;10.50;86.20
60039;DHT22;45916;52.734;6.544;2023-04-25T15:34:46;10.50;88.00
60039;DHT22;45916;52.734;6.544;2023-04-25T15:37:12;10.70;90.30
60039;DHT22;45916;52.734;6.544;2023-04-25T15:39:37;10.80;83.30
60039;DHT22;45916;52.734;6.544;2023-04-25T15:42:03;11.00;83.40
60039;DHT22;45916;52.734;6.544;2023-04-25T15:44:29;11.10;82.60
60039;DHT22;45916;52.734;6.544;2023-04-25T15:46:54;11.20;78.60